sensor_id;sensor_type;location;lat;lon;timestamp;P1;durP1;ratioP1;P2;durP2;ratioP2
9128;SDS011;4599;50.906;6.786;2023-07-20T00:00:22;5.67;;;2.87;;
9128;SDS011;4599;50.906;6.786;2023-07-20T00:04:27;5.57;;;2.53;;
9128;SDS011;4599;50.906;6.786;2023-07-20T00:08:29;6.60;;;2.70;;
9128;SDS011;4599;50.906;6.786;2023-07-20T00:12:32;6.87;;;2.77;;
9128;SDS011;4599;50.906;6.786;2023-07-20T00:16:33;4.93;;;2.63;;
9128;SDS011;4599;50.906;6.786;2023-07-20T00:20:37;13.87;;;4.00;;
9128;SDS011;4599;50.906;6.786;2023-07-20T00:24:38;6.20;;;2.90;;
9128;SDS011;4599;50.906;6.786;2023-07-20T00:28:40;7.20;;;2.80;;
9128;SDS011;4599;50.906;6.786;2023-07-20T00:32:42;4.73;;;2.90;;
9128;SDS011;4599;50.906;6.786;2023-07-20T00:36:45;5.80;;;3.07;;
9128;SDS011;4599;50.906;6.786;2023-07-20T00:40:47;5.00;;;2.73;;
9128;SDS011;4599;50.906;6.786;2023-07-20T00:44:48;4.57;;;2.50;;
9128;SDS011;4599;50.906;6.786;2023-07-20T00:48:49;6.23;;;2.67;;
9128;SDS011;4599;50.906;6.786;2023-07-20T00:52:54;6.07;;;2.60;;
9128;SDS011;4599;50.906;6.786;2023-07-20T00:56:56;4.23;;;2.63;;
9128;SDS011;4599;50.906;6.786;2023-07-20T01:00:58;4.23;;;2.90;;
9128;SDS011;4599;50.906;6.786;2023-07-20T01:05:00;4.87;;;2.50;;
9128;SDS011;4599;50.906;6.786;2023-07-20T01:09:06;3.23;;;2.20;;
9128;SDS011;4599;50.906;6.786;2023-07-20T01:13:14;4.83;;;2.23;;
9128;SDS011;4599;50.906;6.786;2023-07-20T01:17:17;4.23;;;2.57;;
9128;SDS011;4599;50.906;6.786;2023-07-20T01:21:21;6.03;;;2.20;;
9128;SDS011;4599;50.906;6.786;2023-07-20T01:25:37;5.27;;;2.27;;
9128;SDS011;4599;50.906;6.786;2023-07-20T01:29:55;3.17;;;2.20;;
9128;SDS011;4599;50.906;6.786;2023-07-20T01:34:27;4.93;;;2.57;;
9128;SDS011;4599;50.906;6.786;2023-07-20T01:38:30;3.50;;;2.40;;
9128;SDS011;4599;50.906;6.786;2023-07-20T01:42:32;3.60;;;2.17;;
9128;SDS011;4599;50.906;6.786;2023-07-20T01:46:34;2.97;;;2.10;;
9128;SDS011;4599;50.906;6.786;2023-07-20T01:50:37;4.43;;;2.47;;
9128;SDS011;4599;50.906;6.786;2023-07-20T01:54:38;4.80;;;2.50;;
9128;SDS011;4599;50.906;6.786;2023-07-20T01:58:40;5.77;;;2.67;;
9128;SDS011;4599;50.906;6.786;2023-07-20T02:02:42;4.23;;;2.50;;
9128;SDS011;4599;50.906;6.786;2023-07-20T02:06:44;5.63;;;2.67;;
9128;SDS011;4599;50.906;6.786;2023-07-20T02:10:46;3.67;;;2.93;;
9128;SDS011;4599;50.906;6.786;2023-07-20T02:14:48;6.43;;;2.80;;
9128;SDS011;4599;50.906;6.786;2023-07-20T02:18:50;6.57;;;3.40;;
9128;SDS011;4599;50.906;6.786;2023-07-20T02:22:52;5.37;;;3.27;;
9128;SDS011;4599;50.906;6.786;2023-07-20T02:26:54;5.97;;;2.90;;
9128;SDS011;4599;50.906;6.786;2023-07-20T02:30:55;3.63;;;3.00;;
9128;SDS011;4599;50.906;6.786;2023-07-20T02:34:57;5.80;;;3.50;;
9128;SDS011;4599;50.906;6.786;2023-07-20T02:39:01;6.97;;;3.30;;
9128;SDS011;4599;50.906;6.786;2023-07-20T02:43:02;6.43;;;3.27;;
9128;SDS011;4599;50.906;6.786;2023-07-20T02:47:04;6.40;;;3.33;;
9128;SDS011;4599;50.906;6.786;2023-07-20T02:51:07;6.93;;;3.40;;
9128;SDS011;4599;50.906;6.786;2023-07-20T02:55:10;3.57;;;2.93;;
9128;SDS011;4599;50.906;6.786;2023-07-20T02:59:12;6.27;;;2.87;;
9128;SDS011;4599;50.906;6.786;2023-07-20T03:03:13;5.30;;;3.07;;
9128;SDS011;4599;50.906;6.786;2023-07-20T03:07:15;5.43;;;3.03;;
9128;SDS011;4599;50.906;6.786;2023-07-20T03:11:21;3.90;;;2.53;;
9128;SDS011;4599;50.906;6.786;2023-07-20T03:15:22;6.13;;;3.03;;
9128;SDS011;4599;50.906;6.786;2023-07-20T03:19:24;6.33;;;3.17;;
9128;SDS011;4599;50.906;6.786;2023-07-20T03:23:25;4.50;;;3.00;;
9128;SDS011;4599;50.906;6.786;2023-07-20T03:27:28;5.87;;;2.87;;
9128;SDS011;4599;50.906;6.786;2023-07-20T03:31:30;8.30;;;3.20;;
9128;SDS011;4599;50.906;6.786;2023-07-20T03:35:32;5.13;;;2.60;;
9128;SDS011;4599;50.906;6.786;2023-07-20T03:39:33;5.13;;;2.90;;
9128;SDS011;4599;50.906;6.786;2023-07-20T03:43:36;6.40;;;3.00;;
9128;SDS011;4599;50.906;6.786;2023-07-20T03:47:38;5.30;;;3.03;;
9128;SDS011;4599;50.906;6.786;2023-07-20T03:51:40;5.40;;;2.87;;
9128;SDS011;4599;50.906;6.786;2023-07-20T03:55:42;8.77;;;3.70;;
9128;SDS011;4599;50.906;6.786;2023-07-20T03:59:47;4.87;;;2.83;;
9128;SDS011;4599;50.906;6.786;2023-07-20T04:03:49;3.77;;;2.43;;
9128;SDS011;4599;50.906;6.786;2023-07-20T04:07:53;6.00;;;2.47;;
9128;SDS011;4599;50.906;6.786;2023-07-20T04:11:54;4.83;;;2.73;;
9128;SDS011;4599;50.906;6.786;2023-07-20T04:15:57;4.77;;;2.93;;
9128;SDS011;4599;50.906;6.786;2023-07-20T04:19:59;4.43;;;2.60;;
9128;SDS011;4599;50.906;6.786;2023-07-20T04:24:01;5.93;;;2.77;;
9128;SDS011;4599;50.906;6.786;2023-07-20T04:28:02;5.50;;;2.50;;
9128;SDS011;4599;50.906;6.786;2023-07-20T04:32:06;5.53;;;2.50;;
9128;SDS011;4599;50.906;6.786;2023-07-20T04:36:08;7.37;;;2.70;;
9128;SDS011;4599;50.906;6.786;2023-07-20T04:40:10;4.13;;;2.73;;
9128;SDS011;4599;50.906;6.786;2023-07-20T04:44:13;6.87;;;3.00;;
9128;SDS011;4599;50.906;6.786;2023-07-20T04:48:16;5.83;;;2.73;;
9128;SDS011;4599;50.906;6.786;2023-07-20T04:52:18;6.20;;;3.27;;
9128;SDS011;4599;50.906;6.786;2023-07-20T04:56:20;5.57;;;3.10;;
9128;SDS011;4599;50.906;6.786;2023-07-20T05:00:22;7.30;;;3.30;;
9128;SDS011;4599;50.906;6.786;2023-07-20T05:04:25;7.90;;;3.57;;
9128;SDS011;4599;50.906;6.786;2023-07-20T05:08:38;7.87;;;3.63;;
9128;SDS011;4599;50.906;6.786;2023-07-20T05:12:40;7.90;;;3.27;;
9128;SDS011;4599;50.906;6.786;2023-07-20T05:16:42;8.47;;;3.40;;
9128;SDS011;4599;50.906;6.786;2023-07-20T05:20:46;9.37;;;3.67;;
9128;SDS011;4599;50.906;6.786;2023-07-20T05:24:48;8.10;;;3.20;;
9128;SDS011;4599;50.906;6.786;2023-07-20T05:28:49;11.63;;;3.77;;
9128;SDS011;4599;50.906;6.786;2023-07-20T05:32:51;13.40;;;3.60;;
9128;SDS011;4599;50.906;6.786;2023-07-20T05:36:54;8.53;;;3.20;;
9128;SDS011;4599;50.906;6.786;2023-07-20T05:40:58;7.97;;;2.97;;
9128;SDS011;4599;50.906;6.786;2023-07-20T05:45:01;6.73;;;3.50;;
9128;SDS011;4599;50.906;6.786;2023-07-20T05:49:03;10.63;;;3.57;;
9128;SDS011;4599;50.906;6.786;2023-07-20T05:53:06;7.20;;;3.30;;
9128;SDS011;4599;50.906;6.786;2023-07-20T05:57:07;7.40;;;4.00;;
9128;SDS011;4599;50.906;6.786;2023-07-20T06:01:09;8.80;;;3.87;;
9128;SDS011;4599;50.906;6.786;2023-07-20T06:05:11;8.57;;;4.93;;
9128;SDS011;4599;50.906;6.786;2023-07-20T06:09:14;10.73;;;4.53;;
9128;SDS011;4599;50.906;6.786;2023-07-20T06:13:20;10.50;;;5.13;;
9128;SDS011;4599;50.906;6.786;2023-07-20T06:17:21;8.50;;;5.10;;
9128;SDS011;4599;50.906;6.786;2023-07-20T06:21:23;10.57;;;5.87;;
9128;SDS011;4599;50.906;6.786;2023-07-20T06:25:27;10.20;;;6.03;;
9128;SDS011;4599;50.906;6.786;2023-07-20T06:29:29;8.03;;;5.63;;
9128;SDS011;4599;50.906;6.786;2023-07-20T06:33:31;8.87;;;7.00;;
9128;SDS011;4599;50.906;6.786;2023-07-20T06:37:33;6.70;;;5.80;;
9128;SDS011;4599;50.906;6.786;2023-07-20T06:41:36;7.80;;;6.00;;
9128;SDS011;4599;50.906;6.786;2023-07-20T06:45:41;8.57;;;5.97;;
9128;SDS011;4599;50.906;6.786;2023-07-20T06:49:43;9.33;;;5.83;;
9128;SDS011;4599;50.906;6.786;2023-07-20T06:53:44;9.97;;;4.57;;
9128;SDS011;4599;50.906;6.786;2023-07-20T06:57:47;6.20;;;4.60;;
9128;SDS011;4599;50.906;6.786;2023-07-20T07:01:49;6.23;;;4.67;;
9128;SDS011;4599;50.906;6.786;2023-07-20T07:05:54;5.50;;;4.30;;
9128;SDS011;4599;50.906;6.786;2023-07-20T07:09:57;7.53;;;4.80;;
9128;SDS011;4599;50.906;6.786;2023-07-20T07:14:00;6.73;;;3.60;;
9128;SDS011;4599;50.906;6.786;2023-07-20T07:18:04;7.77;;;3.57;;
9128;SDS011;4599;50.906;6.786;2023-07-20T07:22:08;4.73;;;3.20;;
9128;SDS011;4599;50.906;6.786;2023-07-20T07:26:09;6.37;;;3.10;;
9128;SDS011;4599;50.906;6.786;2023-07-20T07:30:13;5.27;;;3.40;;
9128;SDS011;4599;50.906;6.786;2023-07-20T07:34:15;7.60;;;4.43;;
9128;SDS011;4599;50.906;6.786;2023-07-20T07:38:18;5.17;;;3.77;;
9128;SDS011;4599;50.906;6.786;2023-07-20T07:42:24;6.50;;;4.43;;
9128;SDS011;4599;50.906;6.786;2023-07-20T07:46:27;6.00;;;4.00;;
9128;SDS011;4599;50.906;6.786;2023-07-20T07:50:30;6.23;;;2.80;;
9128;SDS011;4599;50.906;6.786;2023-07-20T07:54:32;5.10;;;3.20;;
9128;SDS011;4599;50.906;6.786;2023-07-20T07:58:34;5.43;;;2.80;;
9128;SDS011;4599;50.906;6.786;2023-07-20T08:02:37;4.23;;;3.27;;
9128;SDS011;4599;50.906;6.786;2023-07-20T08:06:39;4.33;;;3.10;;
9128;SDS011;4599;50.906;6.786;2023-07-20T08:10:40;4.20;;;3.13;;
9128;SDS011;4599;50.906;6.786;2023-07-20T08:14:42;3.38;;;2.65;;
9128;SDS011;4599;50.906;6.786;2023-07-20T08:18:45;3.60;;;2.70;;
9128;SDS011;4599;50.906;6.786;2023-07-20T08:22:48;4.18;;;2.53;;
9128;SDS011;4599;50.906;6.786;2023-07-20T08:26:50;3.88;;;2.60;;
9128;SDS011;4599;50.906;6.786;2023-07-20T08:30:53;5.22;;;2.85;;
9128;SDS011;4599;50.906;6.786;2023-07-20T08:34:57;4.38;;;2.88;;
9128;SDS011;4599;50.906;6.786;2023-07-20T08:38:59;4.30;;;2.42;;
9128;SDS011;4599;50.906;6.786;2023-07-20T08:43:01;3.85;;;2.42;;
9128;SDS011;4599;50.906;6.786;2023-07-20T08:47:03;3.42;;;2.40;;
9128;SDS011;4599;50.906;6.786;2023-07-20T08:51:08;5.20;;;2.33;;
9128;SDS011;4599;50.906;6.786;2023-07-20T08:55:12;6.63;;;2.42;;
9128;SDS011;4599;50.906;6.786;2023-07-20T08:59:14;3.45;;;2.17;;
9128;SDS011;4599;50.906;6.786;2023-07-20T09:03:18;3.70;;;2.60;;
9128;SDS011;4599;50.906;6.786;2023-07-20T09:07:21;3.67;;;2.78;;
9128;SDS011;4599;50.906;6.786;2023-07-20T09:11:24;5.63;;;2.80;;
9128;SDS011;4599;50.906;6.786;2023-07-20T09:15:28;4.78;;;2.60;;
9128;SDS011;4599;50.906;6.786;2023-07-20T09:19:30;3.50;;;2.38;;
9128;SDS011;4599;50.906;6.786;2023-07-20T09:23:34;3.38;;;1.92;;
9128;SDS011;4599;50.906;6.786;2023-07-20T09:27:37;3.05;;;1.77;;
9128;SDS011;4599;50.906;6.786;2023-07-20T09:31:39;4.45;;;2.25;;
9128;SDS011;4599;50.906;6.786;2023-07-20T09:35:42;3.85;;;2.35;;
9128;SDS011;4599;50.906;6.786;2023-07-20T09:39:57;3.28;;;2.20;;
9128;SDS011;4599;50.906;6.786;2023-07-20T09:44:04;3.00;;;2.45;;
9128;SDS011;4599;50.906;6.786;2023-07-20T09:48:26;5.63;;;2.17;;
9128;SDS011;4599;50.906;6.786;2023-07-20T09:52:31;4.70;;;2.40;;
9128;SDS011;4599;50.906;6.786;2023-07-20T09:56:37;4.40;;;2.00;;
9128;SDS011;4599;50.906;6.786;2023-07-20T10:00:39;3.58;;;2.20;;
9128;SDS011;4599;50.906;6.786;2023-07-20T10:04:45;5.05;;;2.17;;
9128;SDS011;4599;50.906;6.786;2023-07-20T10:08:47;2.50;;;2.17;;
9128;SDS011;4599;50.906;6.786;2023-07-20T10:12:55;2.92;;;2.30;;
9128;SDS011;4599;50.906;6.786;2023-07-20T10:17:00;3.58;;;2.60;;
9128;SDS011;4599;50.906;6.786;2023-07-20T10:21:06;3.33;;;2.13;;
9128;SDS011;4599;50.906;6.786;2023-07-20T10:25:11;4.00;;;2.17;;
9128;SDS011;4599;50.906;6.786;2023-07-20T10:29:14;2.55;;;2.15;;
9128;SDS011;4599;50.906;6.786;2023-07-20T10:33:17;3.10;;;2.13;;
9128;SDS011;4599;50.906;6.786;2023-07-20T10:41:53;5.15;;;1.80;;
9128;SDS011;4599;50.906;6.786;2023-07-20T10:46:05;6.55;;;1.63;;
9128;SDS011;4599;50.906;6.786;2023-07-20T10:50:07;2.67;;;1.60;;
9128;SDS011;4599;50.906;6.786;2023-07-20T10:54:33;4.28;;;1.73;;
9128;SDS011;4599;50.906;6.786;2023-07-20T10:58:36;3.20;;;1.67;;
9128;SDS011;4599;50.906;6.786;2023-07-20T11:02:46;7.40;;;1.67;;
9128;SDS011;4599;50.906;6.786;2023-07-20T11:06:54;4.50;;;1.88;;
9128;SDS011;4599;50.906;6.786;2023-07-20T11:15:23;1.90;;;1.33;;
9128;SDS011;4599;50.906;6.786;2023-07-20T11:19:26;5.65;;;1.42;;
9128;SDS011;4599;50.906;6.786;2023-07-20T11:23:33;1.77;;;1.63;;
9128;SDS011;4599;50.906;6.786;2023-07-20T11:27:38;2.50;;;1.48;;
9128;SDS011;4599;50.906;6.786;2023-07-20T11:31:46;1.73;;;1.42;;
9128;SDS011;4599;50.906;6.786;2023-07-20T11:35:51;3.30;;;1.38;;
9128;SDS011;4599;50.906;6.786;2023-07-20T11:39:54;2.05;;;1.13;;
9128;SDS011;4599;50.906;6.786;2023-07-20T11:43:57;3.60;;;1.13;;
9128;SDS011;4599;50.906;6.786;2023-07-20T11:47:59;3.58;;;1.10;;
9128;SDS011;4599;50.906;6.786;2023-07-20T11:52:03;1.15;;;1.05;;
9128;SDS011;4599;50.906;6.786;2023-07-20T11:56:07;3.25;;;1.10;;
9128;SDS011;4599;50.906;6.786;2023-07-20T12:00:10;0.90;;;0.90;;
9128;SDS011;4599;50.906;6.786;2023-07-20T12:04:16;1.05;;;1.00;;
9128;SDS011;4599;50.906;6.786;2023-07-20T12:08:25;3.28;;;1.35;;
9128;SDS011;4599;50.906;6.786;2023-07-20T12:12:30;4.18;;;1.40;;
9128;SDS011;4599;50.906;6.786;2023-07-20T12:16:32;3.53;;;1.38;;
9128;SDS011;4599;50.906;6.786;2023-07-20T12:20:35;1.77;;;1.35;;
9128;SDS011;4599;50.906;6.786;2023-07-20T12:25:06;6.80;;;1.45;;
9128;SDS011;4599;50.906;6.786;2023-07-20T12:29:20;5.65;;;1.30;;
9128;SDS011;4599;50.906;6.786;2023-07-20T12:33:22;6.63;;;1.17;;
9128;SDS011;4599;50.906;6.786;2023-07-20T12:37:24;1.23;;;1.10;;
9128;SDS011;4599;50.906;6.786;2023-07-20T12:41:28;3.67;;;1.20;;
9128;SDS011;4599;50.906;6.786;2023-07-20T12:45:30;1.13;;;1.10;;
9128;SDS011;4599;50.906;6.786;2023-07-20T12:49:32;4.43;;;1.23;;
9128;SDS011;4599;50.906;6.786;2023-07-20T12:53:34;3.13;;;1.23;;
9128;SDS011;4599;50.906;6.786;2023-07-20T12:57:37;3.13;;;1.30;;
9128;SDS011;4599;50.906;6.786;2023-07-20T13:01:39;2.57;;;1.10;;
9128;SDS011;4599;50.906;6.786;2023-07-20T13:05:41;4.00;;;1.10;;
9128;SDS011;4599;50.906;6.786;2023-07-20T13:09:46;2.03;;;1.00;;
9128;SDS011;4599;50.906;6.786;2023-07-20T13:13:49;1.80;;;1.20;;
9128;SDS011;4599;50.906;6.786;2023-07-20T13:17:51;8.73;;;1.60;;
9128;SDS011;4599;50.906;6.786;2023-07-20T13:21:53;1.57;;;1.10;;
9128;SDS011;4599;50.906;6.786;2023-07-20T13:25:55;1.80;;;1.30;;
9128;SDS011;4599;50.906;6.786;2023-07-20T13:30:02;2.97;;;1.27;;
9128;SDS011;4599;50.906;6.786;2023-07-20T13:34:04;1.30;;;1.20;;
9128;SDS011;4599;50.906;6.786;2023-07-20T13:38:10;2.57;;;1.30;;
9128;SDS011;4599;50.906;6.786;2023-07-20T13:42:13;1.60;;;1.20;;
9128;SDS011;4599;50.906;6.786;2023-07-20T13:46:20;1.20;;;1.00;;
9128;SDS011;4599;50.906;6.786;2023-07-20T13:50:43;1.13;;;1.02;;
9128;SDS011;4599;50.906;6.786;2023-07-20T13:54:59;2.42;;;1.30;;
9128;SDS011;4599;50.906;6.786;2023-07-20T13:59:06;5.78;;;1.45;;
9128;SDS011;4599;50.906;6.786;2023-07-20T14:03:09;2.58;;;1.40;;
9128;SDS011;4599;50.906;6.786;2023-07-20T14:07:30;1.38;;;1.25;;
9128;SDS011;4599;50.906;6.786;2023-07-20T14:11:34;2.47;;;1.20;;
9128;SDS011;4599;50.906;6.786;2023-07-20T14:15:38;2.25;;;1.00;;
9128;SDS011;4599;50.906;6.786;2023-07-20T14:19:42;1.30;;;1.20;;
9128;SDS011;4599;50.906;6.786;2023-07-20T14:23:44;1.30;;;1.20;;
9128;SDS011;4599;50.906;6.786;2023-07-20T14:27:46;2.30;;;1.20;;
9128;SDS011;4599;50.906;6.786;2023-07-20T14:31:48;3.88;;;1.20;;
9128;SDS011;4599;50.906;6.786;2023-07-20T14:35:55;1.10;;;1.00;;
9128;SDS011;4599;50.906;6.786;2023-07-20T14:39:57;1.60;;;1.10;;
9128;SDS011;4599;50.906;6.786;2023-07-20T14:44:00;1.75;;;1.00;;
9128;SDS011;4599;50.906;6.786;2023-07-20T14:48:02;2.15;;;1.50;;
9128;SDS011;4599;50.906;6.786;2023-07-20T14:52:06;1.10;;;1.10;;
9128;SDS011;4599;50.906;6.786;2023-07-20T14:56:11;1.52;;;1.17;;
9128;SDS011;4599;50.906;6.786;2023-07-20T15:00:13;1.13;;;1.10;;
9128;SDS011;4599;50.906;6.786;2023-07-20T15:04:16;3.40;;;1.20;;
9128;SDS011;4599;50.906;6.786;2023-07-20T15:08:20;2.83;;;1.35;;
9128;SDS011;4599;50.906;6.786;2023-07-20T15:12:22;2.95;;;1.20;;
9128;SDS011;4599;50.906;6.786;2023-07-20T15:16:26;1.65;;;1.35;;
9128;SDS011;4599;50.906;6.786;2023-07-20T15:20:28;2.83;;;1.10;;
9128;SDS011;4599;50.906;6.786;2023-07-20T15:24:31;1.55;;;1.20;;
9128;SDS011;4599;50.906;6.786;2023-07-20T15:28:33;3.47;;;1.23;;
9128;SDS011;4599;50.906;6.786;2023-07-20T15:32:36;3.08;;;1.25;;
9128;SDS011;4599;50.906;6.786;2023-07-20T15:36:42;1.17;;;1.10;;
9128;SDS011;4599;50.906;6.786;2023-07-20T15:40:45;4.05;;;1.20;;
9128;SDS011;4599;50.906;6.786;2023-07-20T15:44:47;1.73;;;1.50;;
9128;SDS011;4599;50.906;6.786;2023-07-20T15:48:50;1.52;;;1.20;;
9128;SDS011;4599;50.906;6.786;2023-07-20T15:52:52;5.73;;;1.30;;
9128;SDS011;4599;50.906;6.786;2023-07-20T15:56:55;2.43;;;1.20;;
9128;SDS011;4599;50.906;6.786;2023-07-20T16:00:57;3.87;;;1.37;;
9128;SDS011;4599;50.906;6.786;2023-07-20T16:05:00;2.47;;;1.20;;
9128;SDS011;4599;50.906;6.786;2023-07-20T16:09:14;2.93;;;1.40;;
9128;SDS011;4599;50.906;6.786;2023-07-20T16:13:17;3.30;;;1.17;;
9128;SDS011;4599;50.906;6.786;2023-07-20T16:17:20;1.67;;;1.20;;
9128;SDS011;4599;50.906;6.786;2023-07-20T16:21:22;2.77;;;1.30;;
9128;SDS011;4599;50.906;6.786;2023-07-20T16:25:24;7.87;;;1.50;;
9128;SDS011;4599;50.906;6.786;2023-07-20T16:29:27;3.80;;;1.13;;
9128;SDS011;4599;50.906;6.786;2023-07-20T16:33:29;5.50;;;1.17;;
9128;SDS011;4599;50.906;6.786;2023-07-20T16:37:32;2.43;;;1.00;;
9128;SDS011;4599;50.906;6.786;2023-07-20T16:41:36;1.10;;;1.00;;
9128;SDS011;4599;50.906;6.786;2023-07-20T16:45:42;3.93;;;1.20;;
9128;SDS011;4599;50.906;6.786;2023-07-20T16:49:45;4.60;;;1.10;;
9128;SDS011;4599;50.906;6.786;2023-07-20T16:53:46;3.77;;;1.50;;
9128;SDS011;4599;50.906;6.786;2023-07-20T16:57:49;1.43;;;1.20;;
9128;SDS011;4599;50.906;6.786;2023-07-20T17:01:52;1.57;;;1.30;;
9128;SDS011;4599;50.906;6.786;2023-07-20T17:05:54;3.30;;;1.33;;
9128;SDS011;4599;50.906;6.786;2023-07-20T17:09:56;3.20;;;1.10;;
9128;SDS011;4599;50.906;6.786;2023-07-20T17:13:57;5.03;;;1.10;;
9128;SDS011;4599;50.906;6.786;2023-07-20T17:18:01;2.87;;;1.20;;
9128;SDS011;4599;50.906;6.786;2023-07-20T17:22:02;1.10;;;0.97;;
9128;SDS011;4599;50.906;6.786;2023-07-20T17:26:04;1.17;;;1.03;;
9128;SDS011;4599;50.906;6.786;2023-07-20T17:30:09;3.87;;;1.10;;
9128;SDS011;4599;50.906;6.786;2023-07-20T17:34:15;1.10;;;1.00;;
9128;SDS011;4599;50.906;6.786;2023-07-20T17:38:17;1.27;;;1.17;;
9128;SDS011;4599;50.906;6.786;2023-07-20T17:42:21;1.50;;;1.10;;
9128;SDS011;4599;50.906;6.786;2023-07-20T17:46:26;2.97;;;1.30;;
9128;SDS011;4599;50.906;6.786;2023-07-20T17:50:32;2.03;;;1.07;;
9128;SDS011;4599;50.906;6.786;2023-07-20T17:54:34;1.17;;;1.00;;
9128;SDS011;4599;50.906;6.786;2023-07-20T17:58:35;4.30;;;1.30;;
9128;SDS011;4599;50.906;6.786;2023-07-20T18:02:37;2.67;;;1.20;;
9128;SDS011;4599;50.906;6.786;2023-07-20T18:06:41;1.73;;;1.10;;
9128;SDS011;4599;50.906;6.786;2023-07-20T18:10:43;3.27;;;1.10;;
9128;SDS011;4599;50.906;6.786;2023-07-20T18:14:46;1.83;;;1.20;;
9128;SDS011;4599;50.906;6.786;2023-07-20T18:18:48;1.10;;;1.00;;
9128;SDS011;4599;50.906;6.786;2023-07-20T18:22:51;2.30;;;1.30;;
9128;SDS011;4599;50.906;6.786;2023-07-20T18:26:53;1.80;;;1.10;;
9128;SDS011;4599;50.906;6.786;2023-07-20T18:30:55;4.70;;;1.50;;
9128;SDS011;4599;50.906;6.786;2023-07-20T18:34:56;1.77;;;1.40;;
9128;SDS011;4599;50.906;6.786;2023-07-20T18:38:59;1.30;;;1.10;;
9128;SDS011;4599;50.906;6.786;2023-07-20T18:43:05;1.20;;;1.10;;
9128;SDS011;4599;50.906;6.786;2023-07-20T18:47:07;1.60;;;1.10;;
9128;SDS011;4599;50.906;6.786;2023-07-20T18:51:09;1.30;;;1.07;;
9128;SDS011;4599;50.906;6.786;2023-07-20T18:55:12;1.53;;;1.10;;
9128;SDS011;4599;50.906;6.786;2023-07-20T18:59:14;1.20;;;0.97;;
9128;SDS011;4599;50.906;6.786;2023-07-20T19:03:15;3.40;;;1.10;;
9128;SDS011;4599;50.906;6.786;2023-07-20T19:07:18;2.07;;;1.00;;
9128;SDS011;4599;50.906;6.786;2023-07-20T19:11:21;2.23;;;1.27;;
9128;SDS011;4599;50.906;6.786;2023-07-20T19:15:26;2.20;;;0.90;;
9128;SDS011;4599;50.906;6.786;2023-07-20T19:19:27;4.97;;;1.20;;
9128;SDS011;4599;50.906;6.786;2023-07-20T19:23:29;2.20;;;1.10;;
9128;SDS011;4599;50.906;6.786;2023-07-20T19:27:34;5.93;;;1.20;;
9128;SDS011;4599;50.906;6.786;2023-07-20T19:31:35;1.50;;;1.07;;
9128;SDS011;4599;50.906;6.786;2023-07-20T19:35:37;1.70;;;1.10;;
9128;SDS011;4599;50.906;6.786;2023-07-20T19:39:39;5.17;;;1.13;;
9128;SDS011;4599;50.906;6.786;2023-07-20T19:43:41;3.17;;;1.10;;
9128;SDS011;4599;50.906;6.786;2023-07-20T19:47:43;2.80;;;1.13;;
9128;SDS011;4599;50.906;6.786;2023-07-20T19:51:45;2.83;;;1.30;;
9128;SDS011;4599;50.906;6.786;2023-07-20T19:55:47;1.77;;;1.20;;
9128;SDS011;4599;50.906;6.786;2023-07-20T19:59:50;4.07;;;1.60;;
9128;SDS011;4599;50.906;6.786;2023-07-20T20:03:52;3.87;;;1.20;;
9128;SDS011;4599;50.906;6.786;2023-07-20T20:07:54;2.70;;;1.20;;
9128;SDS011;4599;50.906;6.786;2023-07-20T20:11:56;2.80;;;1.13;;
9128;SDS011;4599;50.906;6.786;2023-07-20T20:15:59;3.17;;;1.30;;
9128;SDS011;4599;50.906;6.786;2023-07-20T20:20:01;1.60;;;1.30;;
9128;SDS011;4599;50.906;6.786;2023-07-20T20:24:03;1.37;;;1.27;;
9128;SDS011;4599;50.906;6.786;2023-07-20T20:28:05;2.77;;;1.20;;
9128;SDS011;4599;50.906;6.786;2023-07-20T20:32:08;2.23;;;1.20;;
9128;SDS011;4599;50.906;6.786;2023-07-20T20:36:09;1.70;;;1.00;;
9128;SDS011;4599;50.906;6.786;2023-07-20T20:40:11;10.60;;;1.83;;
9128;SDS011;4599;50.906;6.786;2023-07-20T20:44:13;8.23;;;2.23;;
9128;SDS011;4599;50.906;6.786;2023-07-20T20:48:16;6.47;;;2.63;;
9128;SDS011;4599;50.906;6.786;2023-07-20T20:52:18;5.27;;;2.63;;
9128;SDS011;4599;50.906;6.786;2023-07-20T20:56:19;5.03;;;3.03;;
9128;SDS011;4599;50.906;6.786;2023-07-20T21:00:21;5.17;;;3.13;;
9128;SDS011;4599;50.906;6.786;2023-07-20T21:04:24;7.13;;;3.20;;
9128;SDS011;4599;50.906;6.786;2023-07-20T21:08:26;8.20;;;3.80;;
9128;SDS011;4599;50.906;6.786;2023-07-20T21:12:27;4.70;;;3.37;;
9128;SDS011;4599;50.906;6.786;2023-07-20T21:16:29;7.80;;;3.70;;
9128;SDS011;4599;50.906;6.786;2023-07-20T21:20:32;4.83;;;3.83;;
9128;SDS011;4599;50.906;6.786;2023-07-20T21:24:34;4.00;;;3.60;;
9128;SDS011;4599;50.906;6.786;2023-07-20T21:28:36;4.17;;;3.87;;
9128;SDS011;4599;50.906;6.786;2023-07-20T21:32:39;5.60;;;4.17;;
9128;SDS011;4599;50.906;6.786;2023-07-20T21:36:41;7.40;;;4.13;;
9128;SDS011;4599;50.906;6.786;2023-07-20T21:40:43;4.50;;;4.10;;
9128;SDS011;4599;50.906;6.786;2023-07-20T21:44:45;7.23;;;4.30;;
9128;SDS011;4599;50.906;6.786;2023-07-20T21:48:46;5.83;;;4.43;;
9128;SDS011;4599;50.906;6.786;2023-07-20T21:52:50;4.50;;;4.10;;
9128;SDS011;4599;50.906;6.786;2023-07-20T21:56:52;6.83;;;4.27;;
9128;SDS011;4599;50.906;6.786;2023-07-20T22:00:53;7.67;;;4.30;;
9128;SDS011;4599;50.906;6.786;2023-07-20T22:04:55;4.30;;;3.93;;
9128;SDS011;4599;50.906;6.786;2023-07-20T22:08:58;4.37;;;3.97;;
9128;SDS011;4599;50.906;6.786;2023-07-20T22:13:00;5.53;;;4.43;;
9128;SDS011;4599;50.906;6.786;2023-07-20T22:17:01;6.33;;;3.67;;
9128;SDS011;4599;50.906;6.786;2023-07-20T22:21:03;4.27;;;3.87;;
9128;SDS011;4599;50.906;6.786;2023-07-20T22:25:06;4.60;;;4.20;;
9128;SDS011;4599;50.906;6.786;2023-07-20T22:29:08;5.53;;;4.37;;
9128;SDS011;4599;50.906;6.786;2023-07-20T22:33:09;4.57;;;4.17;;
9128;SDS011;4599;50.906;6.786;2023-07-20T22:37:11;5.83;;;4.80;;
9128;SDS011;4599;50.906;6.786;2023-07-20T22:41:14;5.70;;;5.20;;
9128;SDS011;4599;50.906;6.786;2023-07-20T22:45:15;5.60;;;4.87;;
9128;SDS011;4599;50.906;6.786;2023-07-20T22:49:17;6.13;;;5.47;;
9128;SDS011;4599;50.906;6.786;2023-07-20T22:53:20;6.00;;;5.33;;
9128;SDS011;4599;50.906;6.786;2023-07-20T22:57:22;5.60;;;5.10;;
9128;SDS011;4599;50.906;6.786;2023-07-20T23:01:24;5.83;;;5.33;;
9128;SDS011;4599;50.906;6.786;2023-07-20T23:05:26;7.00;;;6.13;;
9128;SDS011;4599;50.906;6.786;2023-07-20T23:09:27;6.80;;;5.93;;
9128;SDS011;4599;50.906;6.786;2023-07-20T23:13:30;6.20;;;5.70;;
9128;SDS011;4599;50.906;6.786;2023-07-20T23:17:31;6.47;;;5.87;;
9128;SDS011;4599;50.906;6.786;2023-07-20T23:21:33;6.10;;;5.60;;
9128;SDS011;4599;50.906;6.786;2023-07-20T23:25:35;6.47;;;5.80;;
9128;SDS011;4599;50.906;6.786;2023-07-20T23:29:38;6.53;;;5.97;;
9128;SDS011;4599;50.906;6.786;2023-07-20T23:33:40;7.93;;;6.20;;
9128;SDS011;4599;50.906;6.786;2023-07-20T23:37:41;10.73;;;6.47;;
9128;SDS011;4599;50.906;6.786;2023-07-20T23:41:43;6.53;;;5.93;;
9128;SDS011;4599;50.906;6.786;2023-07-20T23:45:46;7.53;;;6.53;;
9128;SDS011;4599;50.906;6.786;2023-07-20T23:49:48;7.90;;;6.43;;
9128;SDS011;4599;50.906;6.786;2023-07-20T23:53:49;7.30;;;6.23;;
9128;SDS011;4599;50.906;6.786;2023-07-20T23:57:51;8.13;;;7.33;;
